createdAt,value
2023-04-18T00:01:28.922Z,24.53
2023-04-18T00:03:58.060Z,25.37
2023-04-18T00:06:26.674Z,25.07
2023-04-18T00:08:54.812Z,24.83
2023-04-18T00:11:23.089Z,24.60
2023-04-18T00:13:51.189Z,25.37
2023-04-18T00:16:20.871Z,24.67
2023-04-18T00:18:49.225Z,26.00
2023-04-18T00:21:17.828Z,26.20
2023-04-18T00:23:46.359Z,24.93
2023-04-18T00:26:14.858Z,25.63
2023-04-18T00:28:42.985Z,25.67
2023-04-18T00:31:11.157Z,24.70
2023-04-18T00:33:40.717Z,25.33
2023-04-18T00:36:10.072Z,24.77
2023-04-18T00:38:38.392Z,26.43
2023-04-18T00:41:06.610Z,25.60
2023-04-18T00:43:35.116Z,25.10
2023-04-18T00:46:03.464Z,26.63
2023-04-18T00:48:32.009Z,26.30
2023-04-18T00:51:01.813Z,24.43
2023-04-18T00:53:30.818Z,23.97
2023-04-18T00:55:58.992Z,25.57
2023-04-18T00:58:27.956Z,24.40
2023-04-18T01:00:56.056Z,24.93
2023-04-18T01:03:24.438Z,25.93
2023-04-18T01:05:54.172Z,25.80
2023-04-18T01:08:24.174Z,25.80
2023-04-18T01:10:52.199Z,25.10
2023-04-18T01:13:21.529Z,25.87
2023-04-18T01:15:51.290Z,26.50
2023-04-18T01:18:20.779Z,25.97
2023-04-18T01:20:50.989Z,24.60
2023-04-18T01:23:20.356Z,26.23
2023-04-18T01:25:50.419Z,27.83
2023-04-18T01:28:19.559Z,25.57
2023-04-18T01:30:47.687Z,24.67
2023-04-18T01:33:16.341Z,25.80
2023-04-18T01:35:44.533Z,24.73
2023-04-18T01:38:12.736Z,27.53
2023-04-18T01:40:40.877Z,25.00
2023-04-18T01:43:10.340Z,25.87
2023-04-18T01:45:38.438Z,24.80
2023-04-18T01:48:07.015Z,24.73
2023-04-18T01:50:35.243Z,24.93
2023-04-18T01:53:03.365Z,24.30
2023-04-18T01:55:31.536Z,24.70
2023-04-18T01:57:59.666Z,25.73
2023-04-18T02:00:29.162Z,25.60
2023-04-18T02:02:59.840Z,24.33
2023-04-18T02:05:28.128Z,24.30
2023-04-18T02:07:56.267Z,23.30
2023-04-18T02:10:24.620Z,24.90
2023-04-18T02:12:52.784Z,24.10
2023-04-18T02:15:21.401Z,23.80
2023-04-18T02:17:51.244Z,24.00
2023-04-18T02:20:19.332Z,23.50
2023-04-18T02:22:48.221Z,23.37
2023-04-18T02:25:16.700Z,23.13
2023-04-18T02:27:44.807Z,23.97
2023-04-18T02:30:13.350Z,22.87
2023-04-18T02:32:41.467Z,24.70
2023-04-18T02:35:12.635Z,23.67
2023-04-18T02:37:40.679Z,23.40
2023-04-18T02:40:10.131Z,23.60
2023-04-18T02:42:38.273Z,25.37
2023-04-18T02:45:07.506Z,23.77
2023-04-18T02:47:47.047Z,25.17
2023-04-18T02:50:21.173Z,23.57
2023-04-18T02:52:49.352Z,25.50
2023-04-18T02:55:17.629Z,24.37
2023-04-18T02:57:45.861Z,24.90
2023-04-18T03:00:15.140Z,24.60
2023-04-18T03:02:43.441Z,24.17
2023-04-18T03:05:11.787Z,25.43
2023-04-18T03:07:41.421Z,25.50
2023-04-18T03:10:10.294Z,24.73
2023-04-18T03:12:38.430Z,24.20
2023-04-18T03:15:07.922Z,24.37
2023-04-18T03:17:36.761Z,25.33
2023-04-18T03:20:05.712Z,24.93
2023-04-18T03:22:33.970Z,26.27
2023-04-18T03:25:03.465Z,23.63
2023-04-18T03:27:31.677Z,23.47
2023-04-18T03:29:59.712Z,24.47
2023-04-18T03:32:28.062Z,24.97
2023-04-18T03:34:56.269Z,24.60
2023-04-18T03:37:24.383Z,25.67
2023-04-18T03:39:52.529Z,23.87
2023-04-18T03:42:22.069Z,24.10
2023-04-18T03:44:50.262Z,25.53
2023-04-18T03:47:18.511Z,24.70
2023-04-18T03:49:46.752Z,25.37
2023-04-18T03:52:16.016Z,24.20
2023-04-18T03:54:44.120Z,24.83
2023-04-18T03:57:12.283Z,25.17
2023-04-18T03:59:42.211Z,23.33
2023-04-18T04:02:10.396Z,24.50
2023-04-18T04:04:38.722Z,24.80
2023-04-18T04:07:06.951Z,25.93
2023-04-18T04:09:35.080Z,25.40
2023-04-18T04:12:03.450Z,25.37
2023-04-18T04:14:31.507Z,24.60
2023-04-18T04:17:01.127Z,24.90
2023-04-18T04:19:29.238Z,26.10
2023-04-18T04:21:57.391Z,25.30
2023-04-18T04:24:25.566Z,25.30
2023-04-18T04:26:54.458Z,24.73
2023-04-18T04:29:23.965Z,25.87
2023-04-18T04:31:52.202Z,25.23
2023-04-18T04:34:21.671Z,26.03
2023-04-18T04:36:51.185Z,24.30
2023-04-18T04:39:19.481Z,25.00
2023-04-18T04:41:47.535Z,26.23
2023-04-18T04:44:18.029Z,24.83
2023-04-18T04:46:46.208Z,26.93
2023-04-18T04:49:14.430Z,25.37
2023-04-18T04:51:44.322Z,25.30
2023-04-18T04:54:12.741Z,27.10
2023-04-18T04:56:41.069Z,25.97
2023-04-18T04:59:09.164Z,25.70
2023-04-18T05:01:37.287Z,25.37
2023-04-18T05:04:05.895Z,25.37
2023-04-18T05:06:34.168Z,27.20
2023-04-18T05:09:03.645Z,26.53
2023-04-18T05:11:31.759Z,25.30
2023-04-18T05:13:59.830Z,26.67
2023-04-18T05:16:28.102Z,26.03
2023-04-18T05:18:56.396Z,26.17
2023-04-18T05:21:26.029Z,26.47
2023-04-18T05:23:54.114Z,27.70
2023-04-18T05:26:24.373Z,25.83
2023-04-18T05:28:52.624Z,25.40
2023-04-18T05:31:21.015Z,26.03
2023-04-18T05:33:49.171Z,25.07
2023-04-18T05:36:17.325Z,25.27
2023-04-18T05:38:45.403Z,25.93
2023-04-18T05:41:13.505Z,26.20
2023-04-18T05:43:44.499Z,25.67
2023-04-18T05:46:16.438Z,27.50
2023-04-18T05:48:44.971Z,25.37
2023-04-18T05:51:13.157Z,26.87
2023-04-18T05:53:41.203Z,25.70
2023-04-18T05:56:09.411Z,26.30
2023-04-18T05:58:37.572Z,25.73
2023-04-18T06:01:07.998Z,26.20
2023-04-18T06:03:36.605Z,25.13
2023-04-18T06:06:05.191Z,28.23
2023-04-18T06:08:33.398Z,29.57
2023-04-18T06:11:01.576Z,27.80
2023-04-18T06:13:29.657Z,45.17
2023-04-18T06:15:57.935Z,50.90
2023-04-18T06:18:27.475Z,38.30
2023-04-18T06:20:56.024Z,29.80
2023-04-18T06:23:24.239Z,27.20
2023-04-18T06:25:52.971Z,26.23
2023-04-18T06:28:21.167Z,27.10
2023-04-18T06:30:49.340Z,27.53
2023-04-18T06:33:17.636Z,28.30
2023-04-18T06:35:47.445Z,25.17
2023-04-18T06:38:16.044Z,25.83
2023-04-18T06:40:44.217Z,23.43
2023-04-18T06:43:12.266Z,24.40
2023-04-18T06:45:40.413Z,26.40
2023-04-18T06:48:10.641Z,25.97
2023-04-18T06:50:38.989Z,25.77
2023-04-18T06:53:08.713Z,25.50
2023-04-18T06:55:37.192Z,26.80
2023-04-18T06:58:05.911Z,26.90
2023-04-18T07:00:34.026Z,26.77
2023-04-18T07:03:06.580Z,26.73
2023-04-18T07:05:35.339Z,26.17
2023-04-18T07:08:03.437Z,25.63
2023-04-18T07:10:33.040Z,27.33
2023-04-18T07:13:01.182Z,25.93
2023-04-18T07:15:29.546Z,25.33
2023-04-18T07:17:58.474Z,26.10
2023-04-18T07:20:26.840Z,25.17
2023-04-18T07:22:57.151Z,25.33
2023-04-18T07:25:25.530Z,25.83
2023-04-18T07:27:56.136Z,26.70
2023-04-18T07:30:24.938Z,27.00
2023-04-18T07:32:55.175Z,27.20
2023-04-18T07:35:23.467Z,26.17
2023-04-18T07:37:51.592Z,26.43
2023-04-18T07:40:19.742Z,26.03
2023-04-18T07:42:47.903Z,26.27
2023-04-18T07:45:17.709Z,26.93
2023-04-18T07:47:46.012Z,27.13
2023-04-18T07:50:14.167Z,27.20
2023-04-18T07:52:42.276Z,28.20
2023-04-18T07:55:10.875Z,26.53
2023-04-18T07:57:39.049Z,25.93
2023-04-18T08:00:09.312Z,25.97
2023-04-18T08:02:38.943Z,25.33
2023-04-18T08:05:08.238Z,25.13
2023-04-18T08:07:36.426Z,24.70
2023-04-18T08:10:05.009Z,25.23
2023-04-18T08:12:33.125Z,24.97
2023-04-18T08:15:01.470Z,27.27
2023-04-18T08:17:29.738Z,25.23
2023-04-18T08:19:59.330Z,26.70
2023-04-18T08:22:27.461Z,24.93
2023-04-18T08:25:04.505Z,25.53
2023-04-18T08:27:34.065Z,26.73
2023-04-18T08:30:04.145Z,27.43
2023-04-18T08:32:32.865Z,25.30
2023-04-18T08:35:02.621Z,25.77
2023-04-18T08:37:31.623Z,26.23
2023-04-18T08:39:59.680Z,26.20
2023-04-18T08:42:28.306Z,26.20
2023-04-18T08:44:57.901Z,25.13
2023-04-18T08:47:26.552Z,25.40
2023-04-18T08:49:54.845Z,25.70
2023-04-18T08:52:26.884Z,25.93
2023-04-18T08:54:55.101Z,26.73
2023-04-18T08:57:27.163Z,26.20
2023-04-18T08:59:56.556Z,26.83
2023-04-18T09:02:38.880Z,25.63
2023-04-18T09:05:12.846Z,28.10
2023-04-18T09:07:43.443Z,28.50
2023-04-18T09:10:12.614Z,27.07
2023-04-18T09:12:50.315Z,26.63
2023-04-18T09:15:22.569Z,26.50
2023-04-18T09:17:53.406Z,26.73
2023-04-18T09:20:34.885Z,25.90
2023-04-18T09:23:05.649Z,27.63
2023-04-18T09:25:36.130Z,25.90
2023-04-18T09:28:05.485Z,26.77
2023-04-18T09:30:38.065Z,26.50
2023-04-18T09:33:09.606Z,26.57
2023-04-18T09:35:38.321Z,27.03
2023-04-18T09:38:09.402Z,26.10
2023-04-18T09:40:37.739Z,27.70
2023-04-18T09:43:20.351Z,27.30
2023-04-18T09:45:49.573Z,27.20
2023-04-18T09:48:17.738Z,26.37
2023-04-18T09:50:48.659Z,26.73
2023-04-18T09:53:21.111Z,26.73
2023-04-18T09:55:53.040Z,27.50
2023-04-18T09:58:23.796Z,28.30
2023-04-18T10:00:54.176Z,26.57
2023-04-18T10:03:28.745Z,27.50
2023-04-18T10:05:57.992Z,26.87
2023-04-18T10:08:28.442Z,26.83
2023-04-18T10:10:58.681Z,26.33
2023-04-18T10:13:29.844Z,28.40
2023-04-18T10:15:58.582Z,26.70
2023-04-18T10:18:26.893Z,27.10
2023-04-18T10:21:03.159Z,26.77
2023-04-18T10:23:40.571Z,27.60
2023-04-18T10:26:09.250Z,25.33
2023-04-18T10:28:56.827Z,26.43
2023-04-18T10:31:26.591Z,26.43
2023-04-18T10:36:28.448Z,28.17
2023-04-18T10:39:03.012Z,27.00
2023-04-18T10:41:32.743Z,27.40
2023-04-18T10:44:19.469Z,25.67
2023-04-18T10:47:19.960Z,27.00
2023-04-18T10:50:01.075Z,26.47
2023-04-18T10:52:30.446Z,26.37
2023-04-18T10:55:09.519Z,25.17
2023-04-18T10:57:42.168Z,25.83
2023-04-18T11:00:15.194Z,26.80
2023-04-18T11:02:51.235Z,24.90
2023-04-18T11:05:25.271Z,25.07
2023-04-18T11:07:53.783Z,25.67
2023-04-18T11:10:25.408Z,23.90
2023-04-18T11:12:54.765Z,24.83
2023-04-18T11:15:24.768Z,24.33
2023-04-18T11:18:00.760Z,24.17
2023-04-18T11:20:29.577Z,24.47
2023-04-18T11:22:58.664Z,25.13
2023-04-18T11:25:29.863Z,24.23
2023-04-18T11:28:00.904Z,23.27
2023-04-18T11:30:31.361Z,23.97
2023-04-18T11:33:03.957Z,23.20
2023-04-18T11:35:37.545Z,22.93
2023-04-18T11:38:06.936Z,22.80
2023-04-18T11:40:37.669Z,24.50
2023-04-18T11:43:07.687Z,23.70
2023-04-18T11:45:36.157Z,23.60
2023-04-18T11:48:04.539Z,23.37
2023-04-18T11:50:37.513Z,24.63
2023-04-18T11:53:05.874Z,24.90
2023-04-18T11:55:34.322Z,23.10
2023-04-18T11:58:04.397Z,23.63
2023-04-18T12:00:34.982Z,22.57
2023-04-18T12:03:05.492Z,22.80
2023-04-18T12:05:36.132Z,22.20
2023-04-18T12:08:08.594Z,23.00
2023-04-18T12:10:36.990Z,20.73
2023-04-18T12:13:09.964Z,22.10
2023-04-18T12:15:43.632Z,21.27
2023-04-18T12:18:13.670Z,21.37
2023-04-18T12:20:46.401Z,21.80
2023-04-18T12:23:30.965Z,21.60
2023-04-18T12:26:03.654Z,21.33
2023-04-18T12:28:34.154Z,24.50
2023-04-18T12:31:02.771Z,22.57
2023-04-18T12:33:31.884Z,22.00
2023-04-18T12:36:00.974Z,21.73
2023-04-18T12:38:29.286Z,21.93
2023-04-18T12:40:57.488Z,21.80
2023-04-18T12:43:25.816Z,21.87
2023-04-18T12:45:55.542Z,21.30
2023-04-18T12:48:23.708Z,22.23
2023-04-18T12:50:51.810Z,22.07
2023-04-18T12:53:20.032Z,21.60
2023-04-18T12:55:48.200Z,21.97
2023-04-18T12:58:18.778Z,22.23
2023-04-18T13:00:47.046Z,21.10
2023-04-18T13:03:16.841Z,22.20
2023-04-18T13:05:45.110Z,22.90
2023-04-18T13:08:17.760Z,22.57
2023-04-18T13:10:47.683Z,22.00
2023-04-18T13:13:16.043Z,22.23
2023-04-18T13:15:44.267Z,21.77
2023-04-18T13:18:12.426Z,21.30
2023-04-18T13:20:42.009Z,20.97
2023-04-18T13:23:10.178Z,21.03
2023-04-18T13:25:38.440Z,21.00
2023-04-18T13:28:06.857Z,22.03
2023-04-18T13:30:35.933Z,20.80
2023-04-18T13:33:04.318Z,21.00
2023-04-18T13:35:32.690Z,21.67
2023-04-18T13:38:02.409Z,20.80
2023-04-18T13:40:30.722Z,20.70
2023-04-18T13:42:59.016Z,20.50
2023-04-18T13:45:27.470Z,21.10
2023-04-18T13:47:56.176Z,21.10
2023-04-18T13:50:24.559Z,20.23
2023-04-18T13:52:54.754Z,19.63
2023-04-18T13:55:24.468Z,20.10
2023-04-18T13:57:52.884Z,19.77
2023-04-18T14:00:22.045Z,20.33
2023-04-18T14:02:51.146Z,20.53
2023-04-18T14:05:19.734Z,20.47
2023-04-18T14:07:48.958Z,19.73
2023-04-18T14:10:17.408Z,20.10
2023-04-18T14:12:47.004Z,19.90
2023-04-18T14:15:15.237Z,19.40
2023-04-18T14:17:45.463Z,20.43
2023-04-18T14:20:15.689Z,19.57
2023-04-18T14:22:43.862Z,19.50
2023-04-18T14:25:12.099Z,19.80
2023-04-18T14:27:40.416Z,19.40
2023-04-18T14:30:11.600Z,19.50
2023-04-18T14:32:39.954Z,19.57
2023-04-18T14:35:09.464Z,20.50
2023-04-18T14:37:40.061Z,19.80
2023-04-18T14:40:11.289Z,20.53
2023-04-18T14:42:39.512Z,19.73
2023-04-18T14:45:11.247Z,19.00
2023-04-18T14:47:39.841Z,19.40
2023-04-18T14:50:09.553Z,19.07
2023-04-18T14:52:37.892Z,20.60
2023-04-18T14:55:06.964Z,18.83
2023-04-18T14:57:35.831Z,18.70
2023-04-18T15:00:05.397Z,19.30
2023-04-18T15:02:35.154Z,19.00
2023-04-18T15:05:03.612Z,19.00
2023-04-18T15:07:31.927Z,18.60
2023-04-18T15:10:00.230Z,19.07
2023-04-18T15:12:28.427Z,19.27
2023-04-18T15:14:56.714Z,19.10
2023-04-18T15:17:24.954Z,18.67
2023-04-18T15:19:54.608Z,20.10
2023-04-18T15:22:22.944Z,19.23
2023-04-18T15:24:51.648Z,18.43
2023-04-18T15:27:19.990Z,19.47
2023-04-18T15:29:48.280Z,19.50
2023-04-18T15:32:16.770Z,20.23
2023-04-18T15:34:45.187Z,19.43
2023-04-18T15:37:14.906Z,19.37
2023-04-18T15:39:43.030Z,18.70
2023-04-18T15:42:11.339Z,18.37
2023-04-18T15:44:39.554Z,19.13
2023-04-18T15:47:07.819Z,18.40
2023-04-18T15:49:36.069Z,18.20
2023-04-18T15:52:06.306Z,18.83
2023-04-18T15:54:36.390Z,18.53
2023-04-18T15:57:04.571Z,18.77
2023-04-18T15:59:32.850Z,19.20
2023-04-18T16:02:01.435Z,18.93
2023-04-18T16:04:29.953Z,19.67
2023-04-18T16:06:58.111Z,19.13
2023-04-18T16:09:26.509Z,18.63
2023-04-18T16:11:56.217Z,19.53
2023-04-18T16:14:24.631Z,18.50
2023-04-18T16:16:53.771Z,18.53
2023-04-18T16:19:22.120Z,19.13
2023-04-18T16:21:51.314Z,19.30
2023-04-18T16:24:19.673Z,19.20
2023-04-18T16:26:47.956Z,18.67
2023-04-18T16:29:17.460Z,18.93
2023-04-18T16:31:45.740Z,19.83
2023-04-18T16:34:15.613Z,19.13
2023-04-18T16:36:43.913Z,17.93
2023-04-18T16:39:12.053Z,18.90
2023-04-18T16:41:40.263Z,18.30
2023-04-18T16:44:08.754Z,18.20
2023-04-18T16:46:38.403Z,18.37
2023-04-18T16:49:06.663Z,18.80
2023-04-18T16:51:36.258Z,19.30
2023-04-18T16:54:04.849Z,18.70
2023-04-18T16:56:33.191Z,17.90
2023-04-18T16:59:01.549Z,18.90
2023-04-18T17:01:29.720Z,18.67
2023-04-18T17:03:59.723Z,19.17
2023-04-18T17:06:27.926Z,20.07
2023-04-18T17:08:56.062Z,19.00
2023-04-18T17:11:24.331Z,19.30
2023-04-18T17:13:52.566Z,18.67
2023-04-18T17:16:20.703Z,18.70
2023-04-18T17:18:48.910Z,18.93
2023-04-18T17:21:18.523Z,18.40
2023-04-18T17:23:47.501Z,19.90
2023-04-18T17:26:15.788Z,19.87
2023-04-18T17:28:44.669Z,19.77
2023-04-18T17:31:15.223Z,20.23
2023-04-18T17:33:43.474Z,20.27
2023-04-18T17:36:12.291Z,19.53
2023-04-18T17:38:44.291Z,19.90
2023-04-18T17:41:12.826Z,19.87
2023-04-18T17:43:40.998Z,21.77
2023-04-18T17:46:09.232Z,20.70
2023-04-18T17:48:37.570Z,19.83
2023-04-18T17:51:06.166Z,18.90
2023-04-18T17:53:34.341Z,19.83
2023-04-18T17:56:03.824Z,19.70
2023-04-18T17:58:32.038Z,19.83
2023-04-18T18:01:00.444Z,19.27
2023-04-18T18:03:28.819Z,19.07
2023-04-18T18:05:57.156Z,19.63
2023-04-18T18:08:25.856Z,19.80
2023-04-18T18:10:54.025Z,20.17
2023-04-18T18:13:23.743Z,20.03
2023-04-18T18:15:52.041Z,19.43
2023-04-18T18:18:20.202Z,19.10
2023-04-18T18:20:48.439Z,19.63
2023-04-18T18:23:16.985Z,20.27
2023-04-18T18:25:45.349Z,19.33
2023-04-18T18:28:13.446Z,18.43
2023-04-18T18:30:43.640Z,18.50
2023-04-18T18:33:11.796Z,19.30
2023-04-18T18:35:39.977Z,19.27
2023-04-18T18:38:08.171Z,18.53
2023-04-18T18:40:36.485Z,18.07
2023-04-18T18:43:04.684Z,18.77
2023-04-18T18:45:32.829Z,19.70
2023-04-18T18:48:03.952Z,20.10
2023-04-18T18:50:32.100Z,18.30
2023-04-18T18:53:01.806Z,18.97
2023-04-18T18:55:30.971Z,18.23
2023-04-18T18:57:59.161Z,19.50
2023-04-18T19:00:27.563Z,19.53
2023-04-18T19:02:55.958Z,18.90
2023-04-18T19:05:25.829Z,19.27
2023-04-18T19:07:54.315Z,17.83
2023-04-18T19:10:22.551Z,19.63
2023-04-18T19:12:52.392Z,19.70
2023-04-18T19:15:20.508Z,19.60
2023-04-18T19:17:48.648Z,19.80
2023-04-18T19:20:16.889Z,20.17
2023-04-18T19:22:46.566Z,20.37
2023-04-18T19:25:14.755Z,21.33
2023-04-18T19:27:43.791Z,21.30
2023-04-18T19:30:12.568Z,21.57
2023-04-18T19:32:40.897Z,21.33
2023-04-18T19:35:13.189Z,21.73
2023-04-18T19:37:46.811Z,21.33
2023-04-18T19:40:18.377Z,22.43
2023-04-18T19:42:46.620Z,21.40
2023-04-18T19:45:15.282Z,20.70
2023-04-18T19:47:52.117Z,21.90
2023-04-18T19:50:20.755Z,21.30
2023-04-18T19:52:48.930Z,20.87
2023-04-18T19:55:18.659Z,20.20
2023-04-18T19:57:46.970Z,22.27
2023-04-18T20:00:16.253Z,20.90
2023-04-18T20:02:44.619Z,20.97
2023-04-18T20:05:13.348Z,21.93
2023-04-18T20:07:41.956Z,24.40
2023-04-18T20:10:25.981Z,21.00
2023-04-18T20:13:39.104Z,20.80
2023-04-18T20:16:08.838Z,21.30
2023-04-18T20:18:39.335Z,21.87
2023-04-18T20:21:08.468Z,21.07
2023-04-18T20:23:45.305Z,21.63
2023-04-18T20:26:29.072Z,21.60
2023-04-18T20:28:57.379Z,21.73
2023-04-18T20:31:25.546Z,20.97
2023-04-18T20:33:53.854Z,24.00
2023-04-18T20:36:22.023Z,21.40
2023-04-18T20:38:50.609Z,21.90
2023-04-18T20:41:27.162Z,21.07
2023-04-18T20:44:31.405Z,21.80
2023-04-18T20:46:59.597Z,22.07
2023-04-18T20:49:29.661Z,21.77
2023-04-18T20:51:57.913Z,21.73
2023-04-18T20:54:25.974Z,21.17
2023-04-18T20:56:55.522Z,22.10
2023-04-18T20:59:23.707Z,22.03
2023-04-18T21:01:54.726Z,20.80
2023-04-18T21:04:23.128Z,22.00
2023-04-18T21:06:51.801Z,21.73
2023-04-18T21:09:20.009Z,22.17
2023-04-18T21:11:48.153Z,21.57
2023-04-18T21:14:17.986Z,20.23
2023-04-18T21:16:46.166Z,20.47
2023-04-18T21:19:14.470Z,20.67
2023-04-18T21:21:42.578Z,22.37
2023-04-18T21:24:11.034Z,21.17
2023-04-18T21:26:39.305Z,21.83
2023-04-18T21:29:07.841Z,21.50
2023-04-18T21:31:37.514Z,21.57
2023-04-18T21:34:06.595Z,20.40
2023-04-18T21:36:34.846Z,21.90
2023-04-18T21:39:04.040Z,20.67
2023-04-18T21:41:32.540Z,20.80
2023-04-18T21:44:01.302Z,21.57
2023-04-18T21:46:29.623Z,21.10
2023-04-18T21:48:59.495Z,20.37
2023-04-18T21:51:28.398Z,20.30
2023-04-18T21:53:56.704Z,20.27
2023-04-18T21:56:25.269Z,21.03
2023-04-18T21:58:53.494Z,20.43
2023-04-18T22:01:21.694Z,20.73
2023-04-18T22:03:50.195Z,20.30
2023-04-18T22:06:20.772Z,21.27
2023-04-18T22:08:49.980Z,20.37
2023-04-18T22:11:18.821Z,20.03
2023-04-18T22:13:47.394Z,20.20
2023-04-18T22:16:15.722Z,19.83
2023-04-18T22:18:44.194Z,20.63
2023-04-18T22:21:12.483Z,20.03
2023-04-18T22:23:42.170Z,21.53
2023-04-18T22:26:10.430Z,20.37
2023-04-18T22:28:38.616Z,20.87
2023-04-18T22:31:07.051Z,21.50
2023-04-18T22:33:35.497Z,20.73
2023-04-18T22:36:03.690Z,21.87
2023-04-18T22:38:31.876Z,20.53
2023-04-18T22:41:01.789Z,21.07
2023-04-18T22:43:30.614Z,22.03
2023-04-18T22:45:58.732Z,21.17
2023-04-18T22:48:26.893Z,21.17
2023-04-18T22:50:55.330Z,21.50
2023-04-18T22:53:23.442Z,20.90
2023-04-18T22:55:51.593Z,21.50
2023-04-18T22:58:21.037Z,21.30
2023-04-18T23:00:49.241Z,21.07
2023-04-18T23:03:17.490Z,20.10
2023-04-18T23:05:45.610Z,21.20
2023-04-18T23:08:13.730Z,20.87
2023-04-18T23:10:43.035Z,22.30
2023-04-18T23:13:11.210Z,21.77
2023-04-18T23:15:40.818Z,20.67
2023-04-18T23:18:09.048Z,21.17
2023-04-18T23:20:37.878Z,21.03
2023-04-18T23:23:06.022Z,20.90
2023-04-18T23:25:34.278Z,22.43
2023-04-18T23:28:02.571Z,20.90
2023-04-18T23:30:30.988Z,20.53
2023-04-18T23:33:00.870Z,22.00
2023-04-18T23:35:29.043Z,20.53
2023-04-18T23:37:57.574Z,21.50
2023-04-18T23:40:25.930Z,20.77
2023-04-18T23:42:53.960Z,22.20
2023-04-18T23:45:24.366Z,20.37
2023-04-18T23:47:52.619Z,21.67
2023-04-18T23:50:27.712Z,21.63
2023-04-18T23:52:56.095Z,21.70
2023-04-18T23:55:24.572Z,21.73
2023-04-18T23:57:52.739Z,21.47
